createdAt,value
2023-05-24T00:02:14.208Z,3.27
2023-05-24T00:04:42.200Z,3.20
2023-05-24T00:07:09.165Z,3.07
2023-05-24T00:09:35.860Z,2.53
2023-05-24T00:12:02.801Z,2.73
2023-05-24T00:14:29.665Z,3.40
2023-05-24T00:16:56.493Z,3.30
2023-05-24T00:19:23.387Z,3.33
2023-05-24T00:21:50.322Z,3.10
2023-05-24T00:24:17.491Z,3.00
2023-05-24T00:26:44.653Z,3.87
2023-05-24T00:29:11.604Z,3.00
2023-05-24T00:31:38.310Z,2.87
2023-05-24T00:34:05.107Z,3.03
2023-05-24T00:36:32.992Z,3.80
2023-05-24T00:38:59.920Z,2.87
2023-05-24T00:41:26.949Z,3.33
2023-05-24T00:43:53.755Z,3.10
2023-05-24T00:46:25.064Z,3.10
2023-05-24T00:48:52.182Z,3.23
2023-05-24T00:51:19.336Z,3.53
2023-05-24T00:53:48.423Z,2.77
2023-05-24T00:56:16.822Z,3.70
2023-05-24T00:58:44.746Z,3.47
2023-05-24T01:01:12.064Z,3.13
2023-05-24T01:03:39.690Z,3.20
2023-05-24T01:06:08.120Z,3.33
2023-05-24T01:08:48.029Z,3.67
2023-05-24T01:11:31.114Z,3.37
2023-05-24T01:14:16.219Z,3.57
2023-05-24T01:17:06.957Z,3.73
2023-05-24T01:19:57.565Z,2.90
2023-05-24T01:23:01.819Z,3.73
2023-05-24T01:25:47.514Z,3.40
2023-05-24T01:28:17.548Z,3.17
2023-05-24T01:30:44.960Z,3.20
2023-05-24T01:33:12.179Z,3.50
2023-05-24T01:35:42.652Z,3.00
2023-05-24T01:38:14.397Z,3.00
2023-05-24T01:40:41.538Z,3.70
2023-05-24T01:43:30.319Z,3.57
2023-05-24T01:46:25.402Z,3.90
2023-05-24T01:49:06.758Z,3.60
2023-05-24T01:51:49.106Z,3.70
2023-05-24T01:54:20.278Z,3.40
2023-05-24T01:56:49.002Z,3.07
2023-05-24T01:59:16.252Z,3.63
2023-05-24T02:01:43.328Z,3.57
2023-05-24T02:04:10.914Z,4.37
2023-05-24T02:06:38.191Z,4.07
2023-05-24T02:09:05.192Z,3.23
2023-05-24T02:11:31.962Z,3.57
2023-05-24T02:13:58.702Z,3.77
2023-05-24T02:16:26.719Z,3.47
2023-05-24T02:18:53.568Z,4.10
2023-05-24T02:21:20.258Z,3.93
2023-05-24T02:23:46.989Z,4.63
2023-05-24T02:26:14.687Z,3.50
2023-05-24T02:28:41.700Z,3.40
2023-05-24T02:31:08.622Z,4.30
2023-05-24T02:33:37.429Z,3.80
2023-05-24T02:36:04.297Z,4.27
2023-05-24T02:38:31.985Z,3.63
2023-05-24T02:40:58.739Z,3.30
2023-05-24T02:43:25.513Z,3.80
2023-05-24T02:45:52.273Z,3.57
2023-05-24T02:48:18.998Z,3.70
2023-05-24T02:50:45.841Z,4.47
2023-05-24T02:53:12.638Z,3.63
2023-05-24T02:55:39.338Z,4.13
2023-05-24T02:58:06.318Z,4.37
2023-05-24T03:00:33.038Z,3.60
2023-05-24T03:03:03.007Z,4.20
2023-05-24T03:05:29.787Z,3.90
2023-05-24T03:07:56.762Z,3.70
2023-05-24T03:10:23.445Z,4.73
2023-05-24T03:12:50.163Z,3.63
2023-05-24T03:15:17.177Z,3.27
2023-05-24T03:17:43.931Z,3.80
2023-05-24T03:20:11.741Z,3.73
2023-05-24T03:22:38.684Z,3.80
2023-05-24T03:25:08.662Z,3.53
2023-05-24T03:27:36.453Z,3.93
2023-05-24T03:30:03.768Z,4.37
2023-05-24T03:32:30.598Z,4.40
2023-05-24T03:34:59.390Z,3.90
2023-05-24T03:37:26.295Z,4.33
2023-05-24T03:39:52.972Z,4.43
2023-05-24T03:42:19.661Z,4.20
2023-05-24T03:44:46.515Z,3.73
2023-05-24T03:47:13.350Z,4.00
2023-05-24T03:49:40.036Z,4.37
2023-05-24T03:52:06.743Z,4.40
2023-05-24T03:54:33.457Z,4.73
2023-05-24T03:57:00.452Z,4.53
2023-05-24T03:59:27.173Z,4.20
2023-05-24T04:01:54.525Z,3.53
2023-05-24T04:04:21.295Z,4.70
2023-05-24T04:06:49.662Z,4.83
2023-05-24T04:09:16.445Z,5.57
2023-05-24T04:11:43.243Z,4.43
2023-05-24T04:14:10.001Z,4.10
2023-05-24T04:16:39.807Z,4.33
2023-05-24T04:19:06.628Z,4.43
2023-05-24T04:21:34.590Z,4.83
2023-05-24T04:24:01.659Z,5.73
2023-05-24T04:26:28.400Z,5.00
2023-05-24T04:28:55.268Z,4.50
2023-05-24T04:31:26.410Z,4.33
2023-05-24T04:33:53.270Z,4.50
2023-05-24T04:36:19.977Z,4.60
2023-05-24T04:38:47.231Z,4.33
2023-05-24T04:41:14.145Z,5.00
2023-05-24T04:43:41.105Z,4.77
2023-05-24T04:46:09.387Z,4.37
2023-05-24T04:48:36.543Z,4.77
2023-05-24T04:51:03.373Z,5.37
2023-05-24T04:53:30.505Z,4.80
2023-05-24T04:55:57.314Z,4.53
2023-05-24T04:58:24.051Z,4.97
2023-05-24T05:00:51.241Z,4.80
2023-05-24T05:03:18.372Z,4.67
2023-05-24T05:05:46.538Z,4.10
2023-05-24T05:08:33.733Z,4.57
2023-05-24T05:11:01.150Z,4.50
2023-05-24T05:13:27.888Z,4.17
2023-05-24T05:15:54.570Z,4.10
2023-05-24T05:18:21.300Z,4.17
2023-05-24T05:20:48.097Z,3.80
2023-05-24T05:23:14.925Z,4.40
2023-05-24T05:25:41.645Z,3.43
2023-05-24T05:28:08.314Z,3.67
2023-05-24T05:30:35.010Z,3.50
2023-05-24T05:33:01.911Z,4.23
2023-05-24T05:35:28.777Z,4.60
2023-05-24T05:37:55.457Z,4.27
2023-05-24T05:52:55.456Z,3.60
2023-05-24T05:55:59.235Z,2.80
2023-05-24T05:58:40.278Z,3.08
2023-05-24T06:01:44.779Z,3.10
2023-05-24T06:04:33.889Z,2.92
2023-05-24T06:07:00.764Z,2.70
2023-05-24T06:09:27.895Z,3.40
2023-05-24T06:11:56.698Z,2.47
2023-05-24T06:14:27.171Z,2.75
2023-05-24T06:17:06.266Z,3.00
2023-05-24T06:19:42.837Z,2.80
2023-05-24T06:22:15.290Z,2.83
2023-05-24T06:24:44.200Z,2.72
2023-05-24T06:27:20.540Z,2.58
2023-05-24T06:29:47.950Z,2.42
2023-05-24T06:32:17.748Z,3.00
2023-05-24T06:34:45.036Z,2.58
2023-05-24T06:37:17.642Z,2.63
2023-05-24T06:39:50.791Z,2.50
2023-05-24T06:42:22.980Z,2.50
2023-05-24T06:44:55.758Z,2.70
2023-05-24T06:47:40.559Z,2.50
2023-05-24T06:50:26.504Z,2.15
2023-05-24T06:53:04.292Z,2.63
2023-05-24T06:55:58.346Z,2.20
2023-05-24T06:58:33.991Z,2.83
2023-05-24T07:01:20.440Z,2.10
2023-05-24T07:04:09.967Z,2.58
2023-05-24T07:07:21.196Z,2.53
2023-05-24T07:10:30.614Z,2.50
2023-05-24T07:13:30.384Z,2.40
2023-05-24T07:16:06.232Z,2.38
2023-05-24T07:18:48.706Z,3.22
2023-05-24T07:21:40.720Z,2.78
2023-05-24T07:24:24.767Z,2.70
2023-05-24T07:26:58.682Z,2.80
2023-05-24T07:29:53.118Z,2.33
2023-05-24T07:32:30.504Z,2.20
2023-05-24T07:35:06.931Z,2.47
2023-05-24T07:37:43.148Z,3.20
2023-05-24T07:40:23.724Z,2.83
2023-05-24T07:42:50.851Z,2.97
2023-05-24T07:45:24.956Z,2.77
2023-05-24T07:47:57.215Z,2.80
2023-05-24T07:50:38.259Z,2.53
2023-05-24T07:53:13.418Z,2.40
2023-05-24T07:55:47.875Z,2.37
2023-05-24T07:58:17.917Z,2.60
2023-05-24T08:00:48.323Z,2.72
2023-05-24T08:03:33.261Z,2.47
2023-05-24T08:06:08.526Z,2.42
2023-05-24T08:08:57.847Z,3.10
2023-05-24T08:11:29.747Z,2.35
2023-05-24T08:13:59.252Z,2.13
2023-05-24T08:16:29.193Z,2.47
2023-05-24T08:18:56.352Z,2.97
2023-05-24T08:21:23.887Z,2.50
2023-05-24T08:23:58.749Z,2.90
2023-05-24T08:26:26.195Z,2.35
2023-05-24T08:28:55.505Z,2.20
2023-05-24T08:32:02.515Z,2.38
2023-05-24T08:34:44.607Z,2.38
2023-05-24T08:37:20.957Z,2.67
2023-05-24T08:40:09.416Z,2.42
2023-05-24T08:45:39.518Z,2.42
2023-05-24T08:48:12.998Z,2.17
2023-05-24T08:51:10.071Z,2.35
2023-05-24T08:53:45.378Z,2.38
2023-05-24T08:56:13.373Z,2.97
2023-05-24T08:58:51.515Z,2.30
2023-05-24T09:01:29.760Z,2.20
2023-05-24T09:04:05.621Z,2.15
2023-05-24T09:07:36.279Z,2.40
2023-05-24T09:10:53.887Z,2.30
2023-05-24T09:13:37.821Z,2.55
2023-05-24T09:16:21.753Z,2.63
2023-05-24T09:18:50.645Z,2.38
2023-05-24T09:21:35.470Z,2.65
2023-05-24T09:24:13.779Z,2.15
2023-05-24T09:26:45.687Z,3.13
2023-05-24T09:29:33.133Z,2.22
2023-05-24T09:32:08.868Z,1.98
2023-05-24T09:35:05.931Z,2.50
2023-05-24T09:38:19.783Z,2.50
2023-05-24T09:41:18.567Z,2.58
2023-05-24T09:43:53.981Z,2.67
2023-05-24T09:46:26.993Z,2.13
2023-05-24T09:51:58.513Z,2.92
2023-05-24T09:54:32.245Z,2.58
2023-05-24T09:57:14.437Z,2.70
2023-05-24T09:59:46.795Z,2.30
2023-05-24T10:02:14.749Z,2.50
2023-05-24T10:08:02.485Z,2.80
2023-05-24T10:10:46.049Z,2.63
2023-05-24T10:13:23.190Z,2.25
2023-05-24T10:16:25.946Z,2.38
2023-05-24T10:18:57.804Z,3.10
2023-05-24T10:21:38.026Z,2.72
2023-05-24T10:25:09.428Z,2.50
2023-05-24T10:28:37.896Z,2.70
2023-05-24T10:32:12.767Z,2.72
2023-05-24T10:35:28.474Z,2.38
2023-05-24T10:49:59.873Z,2.45
2023-05-24T10:52:44.878Z,2.35
2023-05-24T10:56:00.832Z,2.88
2023-05-24T11:02:50.499Z,2.40
2023-05-24T11:08:18.777Z,2.45
2023-05-24T11:09:18.914Z,1.98
2023-05-24T11:12:48.834Z,2.72
2023-05-24T11:16:01.199Z,3.03
2023-05-24T11:18:43.957Z,2.30
2023-05-24T11:22:27.836Z,2.75
2023-05-24T11:25:03.845Z,2.58
2023-05-24T11:28:13.042Z,2.45
2023-05-24T11:31:00.693Z,2.70
2023-05-24T11:33:38.276Z,2.03
2023-05-24T11:36:17.555Z,2.38
2023-05-24T11:38:58.919Z,2.50
2023-05-24T11:41:29.775Z,2.13
2023-05-24T11:44:00.186Z,2.90
2023-05-24T11:46:28.816Z,2.80
2023-05-24T11:49:12.512Z,2.40
2023-05-24T11:51:48.795Z,2.40
2023-05-24T11:54:20.653Z,2.50
2023-05-24T11:57:00.786Z,1.95
2023-05-24T11:59:42.040Z,2.20
2023-05-24T12:05:13.192Z,2.53
2023-05-24T12:07:49.441Z,2.22
2023-05-24T12:10:21.554Z,2.28
2023-05-24T12:12:50.411Z,2.20
2023-05-24T12:15:24.532Z,2.60
2023-05-24T12:17:54.022Z,2.45
2023-05-24T12:20:26.526Z,2.42
2023-05-24T12:23:05.175Z,2.63
2023-05-24T12:25:34.412Z,2.83
2023-05-24T12:28:04.595Z,2.50
2023-05-24T12:30:32.701Z,2.40
2023-05-24T12:33:06.646Z,2.20
2023-05-24T12:35:37.238Z,2.15
2023-05-24T12:38:11.059Z,1.98
2023-05-24T12:40:45.227Z,2.50
2023-05-24T12:43:24.290Z,2.40
2023-05-24T12:45:56.094Z,2.13
2023-05-24T12:48:56.834Z,2.17
2023-05-24T12:51:39.508Z,2.20
2023-05-24T12:56:51.338Z,2.10
2023-05-24T12:59:19.723Z,2.75
2023-05-24T13:01:50.718Z,2.58
2023-05-24T13:04:22.249Z,2.70
2023-05-24T13:06:49.292Z,2.10
2023-05-24T13:09:18.954Z,2.25
2023-05-24T13:11:47.129Z,2.22
2023-05-24T13:14:15.503Z,2.38
2023-05-24T13:16:42.780Z,2.42
2023-05-24T13:19:10.397Z,2.22
2023-05-24T13:21:37.298Z,2.28
2023-05-24T13:24:06.507Z,2.50
2023-05-24T13:26:37.667Z,1.90
2023-05-24T13:31:37.656Z,2.13
2023-05-24T13:34:05.182Z,2.55
2023-05-24T13:36:32.162Z,2.03
2023-05-24T13:39:13.249Z,2.35
2023-05-24T13:41:42.534Z,2.10
2023-05-24T13:44:10.304Z,2.30
2023-05-24T13:46:37.885Z,2.28
2023-05-24T13:49:05.482Z,2.28
2023-05-24T13:51:33.105Z,2.50
2023-05-24T13:54:01.171Z,2.67
2023-05-24T13:56:33.180Z,2.83
2023-05-24T13:59:02.690Z,2.33
2023-05-24T14:01:30.442Z,2.40
2023-05-24T14:03:57.333Z,2.53
2023-05-24T14:06:24.071Z,2.50
2023-05-24T14:08:51.169Z,2.47
2023-05-24T14:11:17.920Z,2.60
2023-05-24T14:16:14.826Z,2.90
2023-05-24T14:18:41.865Z,2.40
2023-05-24T14:21:08.602Z,2.38
2023-05-24T14:23:35.401Z,2.17
2023-05-24T14:26:02.167Z,2.67
2023-05-24T14:28:28.903Z,2.72
2023-05-24T14:30:55.785Z,3.15
2023-05-24T14:33:23.449Z,2.42
2023-05-24T14:35:51.675Z,2.13
2023-05-24T14:38:18.601Z,3.22
2023-05-24T14:40:47.678Z,2.70
2023-05-24T14:43:14.572Z,2.50
2023-05-24T14:45:42.271Z,2.10
2023-05-24T14:48:14.984Z,2.60
2023-05-24T14:50:42.121Z,2.47
2023-05-24T14:53:11.975Z,2.80
2023-05-24T14:55:41.057Z,2.60
2023-05-24T14:58:09.304Z,2.72
2023-05-24T15:00:36.842Z,2.80
2023-05-24T15:03:06.079Z,2.40
2023-05-24T15:05:33.155Z,2.67
2023-05-24T15:08:00.057Z,2.50
2023-05-24T15:10:26.864Z,2.60
2023-05-24T15:12:53.669Z,2.50
2023-05-24T15:15:22.541Z,1.92
2023-05-24T15:17:49.522Z,2.45
2023-05-24T15:20:16.519Z,2.03
2023-05-24T15:22:43.562Z,2.05
2023-05-24T15:25:11.299Z,2.28
2023-05-24T15:27:39.365Z,1.98
2023-05-24T15:30:07.389Z,1.67
2023-05-24T15:32:34.305Z,2.10
2023-05-24T15:35:01.145Z,2.03
2023-05-24T15:37:27.996Z,2.17
2023-05-24T15:39:54.911Z,2.22
2023-05-24T15:42:24.162Z,2.00
2023-05-24T15:44:51.086Z,1.98
2023-05-24T15:47:19.684Z,2.13
2023-05-24T15:49:48.162Z,2.08
2023-05-24T15:52:15.008Z,2.08
2023-05-24T15:54:41.768Z,2.88
2023-05-24T15:57:08.536Z,2.35
2023-05-24T15:59:36.890Z,2.35
2023-05-24T16:02:03.858Z,2.03
2023-05-24T16:04:30.749Z,2.40
2023-05-24T16:06:57.839Z,2.88
2023-05-24T16:09:24.605Z,2.00
2023-05-24T16:11:51.652Z,2.28
2023-05-24T16:14:18.601Z,2.13
2023-05-24T16:16:45.688Z,2.00
2023-05-24T16:19:12.759Z,2.20
2023-05-24T16:21:39.815Z,2.33
2023-05-24T16:24:06.937Z,2.63
2023-05-24T16:26:34.119Z,2.30
2023-05-24T16:29:01.845Z,2.20
2023-05-24T16:31:29.789Z,2.33
2023-05-24T16:33:58.835Z,2.30
2023-05-24T16:36:27.028Z,2.30
2023-05-24T16:38:54.122Z,1.88
2023-05-24T16:41:20.899Z,1.88
2023-05-24T16:43:47.974Z,2.30
2023-05-24T16:46:14.834Z,2.10
2023-05-24T16:48:41.746Z,2.33
2023-05-24T16:51:08.608Z,2.33
2023-05-24T16:53:35.404Z,2.65
2023-05-24T16:56:02.174Z,2.20
2023-05-24T16:58:29.231Z,2.35
2023-05-24T17:00:56.274Z,2.03
2023-05-24T17:03:28.581Z,2.25
2023-05-24T17:05:56.808Z,2.42
2023-05-24T17:08:25.768Z,2.40
2023-05-24T17:10:56.163Z,2.05
2023-05-24T17:13:29.426Z,2.08
2023-05-24T17:15:57.526Z,2.10
2023-05-24T17:18:29.221Z,2.13
2023-05-24T17:20:57.433Z,2.35
2023-05-24T17:23:31.919Z,2.03
2023-05-24T17:25:59.669Z,2.30
2023-05-24T17:28:30.007Z,2.20
2023-05-24T17:30:58.949Z,2.45
2023-05-24T17:33:28.057Z,2.20
2023-05-24T17:35:56.645Z,2.35
2023-05-24T17:38:25.017Z,2.30
2023-05-24T17:40:56.896Z,2.40
2023-05-24T17:43:24.059Z,2.33
2023-05-24T17:45:51.121Z,2.60
2023-05-24T17:48:17.936Z,2.67
2023-05-24T17:50:44.633Z,2.58
2023-05-24T17:53:29.973Z,2.72
2023-05-24T17:55:57.693Z,2.53
2023-05-24T17:58:24.494Z,2.40
2023-05-24T18:00:51.347Z,2.23
2023-05-24T18:03:18.325Z,2.07
2023-05-24T18:05:45.343Z,2.43
2023-05-24T18:08:12.231Z,2.13
2023-05-24T18:10:39.071Z,2.10
2023-05-24T18:13:09.578Z,2.23
2023-05-24T18:15:36.600Z,2.67
2023-05-24T18:18:03.862Z,2.63
2023-05-24T18:20:30.776Z,2.50
2023-05-24T18:22:57.651Z,2.77
2023-05-24T18:25:24.551Z,2.93
2023-05-24T18:27:51.455Z,2.77
2023-05-24T18:30:18.449Z,2.30
2023-05-24T18:33:02.579Z,2.23
2023-05-24T18:35:30.878Z,2.30
2023-05-24T18:37:58.280Z,2.20
2023-05-24T18:40:25.098Z,2.40
2023-05-24T18:42:51.945Z,2.30
2023-05-24T18:45:18.821Z,2.10
2023-05-24T18:47:45.659Z,2.30
2023-05-24T18:50:12.599Z,2.07
2023-05-24T18:52:39.382Z,2.30
2023-05-24T18:55:10.619Z,2.40
2023-05-24T18:57:38.171Z,3.00
2023-05-24T19:00:07.400Z,2.07
2023-05-24T19:02:38.507Z,2.27
2023-05-24T19:05:06.876Z,2.37
2023-05-24T19:07:35.070Z,2.50
2023-05-24T19:10:02.478Z,2.40
2023-05-24T19:12:30.126Z,2.20
2023-05-24T19:14:57.067Z,2.23
2023-05-24T19:17:24.940Z,3.23
2023-05-24T19:19:52.331Z,2.43
2023-05-24T19:22:19.412Z,2.70
2023-05-24T19:24:46.400Z,2.67
2023-05-24T19:27:13.552Z,2.50
2023-05-24T19:29:40.338Z,2.90
2023-05-24T19:32:08.371Z,3.00
2023-05-24T19:34:37.307Z,3.17
2023-05-24T19:37:04.383Z,3.30
2023-05-24T19:39:31.086Z,3.50
2023-05-24T19:41:57.868Z,2.80
2023-05-24T19:44:24.679Z,3.30
2023-05-24T19:46:54.773Z,3.10
2023-05-24T19:49:21.612Z,3.10
2023-05-24T19:51:48.509Z,3.33
2023-05-24T19:54:15.346Z,3.50
2023-05-24T19:56:42.097Z,3.53
2023-05-24T19:59:08.903Z,3.27
2023-05-24T20:01:36.089Z,3.40
2023-05-24T20:04:03.051Z,3.43
2023-05-24T20:06:29.983Z,3.87
2023-05-24T20:08:59.787Z,3.47
2023-05-24T20:11:26.928Z,3.43
2023-05-24T20:13:55.842Z,3.60
2023-05-24T20:16:23.370Z,3.87
2023-05-24T20:18:50.186Z,3.50
2023-05-24T20:21:18.498Z,4.67
2023-05-24T20:23:45.329Z,4.03
2023-05-24T20:26:12.036Z,4.00
2023-05-24T20:28:38.775Z,3.90
2023-05-24T20:31:06.353Z,3.50
2023-05-24T20:33:37.763Z,4.37
2023-05-24T20:36:05.323Z,5.10
2023-05-24T20:38:32.066Z,4.60
2023-05-24T20:40:58.788Z,3.80
2023-05-24T20:43:25.715Z,3.77
2023-05-24T20:45:52.434Z,3.63
2023-05-24T20:48:19.251Z,4.03
2023-05-24T20:50:46.270Z,3.60
2023-05-24T20:53:12.977Z,4.60
2023-05-24T20:55:39.687Z,3.80
2023-05-24T20:58:06.552Z,4.17
2023-05-24T21:00:33.241Z,4.10
2023-05-24T21:03:00.025Z,3.77
2023-05-24T21:05:26.845Z,3.93
2023-05-24T21:07:54.585Z,3.73
2023-05-24T21:10:21.473Z,3.57
2023-05-24T21:12:48.900Z,3.57
2023-05-24T21:15:15.917Z,4.30
2023-05-24T21:17:42.711Z,4.00
2023-05-24T21:20:09.893Z,3.43
2023-05-24T21:22:36.620Z,3.50
2023-05-24T21:25:04.626Z,3.50
2023-05-24T21:27:31.395Z,3.83
2023-05-24T21:29:58.218Z,3.73
2023-05-24T21:32:24.915Z,3.90
2023-05-24T21:34:51.701Z,3.57
2023-05-24T21:37:18.458Z,3.80
2023-05-24T21:39:45.203Z,3.83
2023-05-24T21:42:11.946Z,3.73
2023-05-24T21:44:38.641Z,4.00
2023-05-24T21:47:05.700Z,4.17
2023-05-24T21:49:32.471Z,3.70
2023-05-24T21:51:59.178Z,3.67
2023-05-24T21:54:25.865Z,3.80
2023-05-24T21:56:52.665Z,3.70
2023-05-24T21:59:21.246Z,3.70
2023-05-24T22:01:48.945Z,3.30
2023-05-24T22:04:15.815Z,3.90
2023-05-24T22:06:44.815Z,3.77
2023-05-24T22:09:13.543Z,3.97
2023-05-24T22:11:43.315Z,3.53
2023-05-24T22:14:10.928Z,4.37
2023-05-24T22:16:37.824Z,4.93
2023-05-24T22:19:12.118Z,3.93
2023-05-24T22:21:42.792Z,3.70
2023-05-24T22:24:09.789Z,3.77
2023-05-24T22:26:36.708Z,3.60
2023-05-24T22:29:04.278Z,4.30
2023-05-24T22:31:34.911Z,4.33
2023-05-24T22:34:02.548Z,4.13
2023-05-24T22:36:35.767Z,3.80
2023-05-24T22:39:02.652Z,4.00
2023-05-24T22:41:29.506Z,4.03
2023-05-24T22:43:57.404Z,4.50
2023-05-24T22:46:24.750Z,4.50
2023-05-24T22:48:52.526Z,4.07
2023-05-24T22:51:22.503Z,4.03
2023-05-24T22:53:49.405Z,4.33
2023-05-24T22:56:17.919Z,4.33
2023-05-24T22:58:44.758Z,4.80
2023-05-24T23:01:11.664Z,4.47
2023-05-24T23:03:38.452Z,4.30
2023-05-24T23:06:05.605Z,4.57
2023-05-24T23:08:33.349Z,4.30
2023-05-24T23:11:00.547Z,4.43
2023-05-24T23:13:33.790Z,3.77
2023-05-24T23:16:00.777Z,4.00
2023-05-24T23:18:27.947Z,4.50
2023-05-24T23:20:55.994Z,4.73
2023-05-24T23:23:24.868Z,3.90
2023-05-24T23:25:51.828Z,4.80
2023-05-24T23:28:18.761Z,5.33
2023-05-24T23:30:45.998Z,4.60
2023-05-24T23:33:12.717Z,4.80
2023-05-24T23:35:39.844Z,4.30
2023-05-24T23:38:06.696Z,5.20
2023-05-24T23:40:34.298Z,4.90
2023-05-24T23:43:01.425Z,5.00
2023-05-24T23:45:28.163Z,4.63
2023-05-24T23:47:55.051Z,4.73
2023-05-24T23:50:22.761Z,4.20
2023-05-24T23:52:49.993Z,4.60
2023-05-24T23:55:17.250Z,4.20
2023-05-24T23:57:44.047Z,5.00
